sensor_id;sensor_type;location;lat;lon;timestamp;P1;durP1;ratioP1;P2;durP2;ratioP2
75035;SDS011;64247;51.540;5.854;2023-04-30T00:00:34;11.50;;;6.45;;
75035;SDS011;64247;51.540;5.854;2023-04-30T00:02:35;11.07;;;7.22;;
75035;SDS011;64247;51.540;5.854;2023-04-30T00:04:36;12.55;;;6.65;;
75035;SDS011;64247;51.540;5.854;2023-04-30T00:06:37;13.30;;;6.97;;
75035;SDS011;64247;51.540;5.854;2023-04-30T00:08:38;13.90;;;7.05;;
75035;SDS011;64247;51.540;5.854;2023-04-30T00:10:39;13.35;;;7.53;;
75035;SDS011;64247;51.540;5.854;2023-04-30T00:12:40;12.52;;;7.43;;
75035;SDS011;64247;51.540;5.854;2023-04-30T00:14:41;10.85;;;6.57;;
75035;SDS011;64247;51.540;5.854;2023-04-30T00:16:41;11.82;;;6.88;;
75035;SDS011;64247;51.540;5.854;2023-04-30T00:18:42;10.70;;;6.72;;
75035;SDS011;64247;51.540;5.854;2023-04-30T00:20:43;12.68;;;7.00;;
75035;SDS011;64247;51.540;5.854;2023-04-30T00:22:44;11.02;;;6.47;;
75035;SDS011;64247;51.540;5.854;2023-04-30T00:24:45;11.93;;;7.53;;
75035;SDS011;64247;51.540;5.854;2023-04-30T00:26:46;13.13;;;7.22;;
75035;SDS011;64247;51.540;5.854;2023-04-30T00:28:47;13.55;;;7.30;;
75035;SDS011;64247;51.540;5.854;2023-04-30T00:30:48;13.43;;;7.72;;
75035;SDS011;64247;51.540;5.854;2023-04-30T00:32:49;15.68;;;7.50;;
75035;SDS011;64247;51.540;5.854;2023-04-30T00:34:49;12.10;;;6.63;;
75035;SDS011;64247;51.540;5.854;2023-04-30T00:36:50;11.70;;;6.40;;
75035;SDS011;64247;51.540;5.854;2023-04-30T00:38:51;12.05;;;6.68;;
75035;SDS011;64247;51.540;5.854;2023-04-30T00:40:52;11.02;;;6.70;;
75035;SDS011;64247;51.540;5.854;2023-04-30T00:42:53;14.05;;;6.90;;
75035;SDS011;64247;51.540;5.854;2023-04-30T00:44:55;14.85;;;7.93;;
75035;SDS011;64247;51.540;5.854;2023-04-30T00:46:57;10.77;;;7.00;;
75035;SDS011;64247;51.540;5.854;2023-04-30T00:48:58;12.10;;;7.28;;
75035;SDS011;64247;51.540;5.854;2023-04-30T00:51:04;14.27;;;7.15;;
75035;SDS011;64247;51.540;5.854;2023-04-30T00:53:05;16.88;;;7.47;;
75035;SDS011;64247;51.540;5.854;2023-04-30T00:55:07;13.40;;;7.43;;
75035;SDS011;64247;51.540;5.854;2023-04-30T00:57:11;13.18;;;7.38;;
75035;SDS011;64247;51.540;5.854;2023-04-30T00:59:15;13.95;;;7.07;;
75035;SDS011;64247;51.540;5.854;2023-04-30T01:01:16;13.35;;;8.02;;
75035;SDS011;64247;51.540;5.854;2023-04-30T01:03:18;14.63;;;8.20;;
75035;SDS011;64247;51.540;5.854;2023-04-30T01:05:19;14.32;;;7.70;;
75035;SDS011;64247;51.540;5.854;2023-04-30T01:07:25;13.90;;;7.60;;
75035;SDS011;64247;51.540;5.854;2023-04-30T01:09:27;18.05;;;8.05;;
75035;SDS011;64247;51.540;5.854;2023-04-30T01:17:31;14.15;;;7.35;;
75035;SDS011;64247;51.540;5.854;2023-04-30T01:19:44;14.20;;;7.97;;
75035;SDS011;64247;51.540;5.854;2023-04-30T01:21:46;12.48;;;7.65;;
75035;SDS011;64247;51.540;5.854;2023-04-30T01:29:42;11.07;;;7.32;;
75035;SDS011;64247;51.540;5.854;2023-04-30T01:31:43;14.50;;;8.32;;
75035;SDS011;64247;51.540;5.854;2023-04-30T01:33:44;13.93;;;8.68;;
75035;SDS011;64247;51.540;5.854;2023-04-30T01:41:52;14.77;;;8.20;;
75035;SDS011;64247;51.540;5.854;2023-04-30T01:48:27;16.67;;;8.27;;
75035;SDS011;64247;51.540;5.854;2023-04-30T01:53:21;18.13;;;9.70;;
75035;SDS011;64247;51.540;5.854;2023-04-30T01:55:36;19.17;;;9.30;;
75035;SDS011;64247;51.540;5.854;2023-04-30T01:57:55;21.63;;;10.25;;
75035;SDS011;64247;51.540;5.854;2023-04-30T02:00:00;21.67;;;9.10;;
75035;SDS011;64247;51.540;5.854;2023-04-30T02:02:23;16.08;;;9.55;;
75035;SDS011;64247;51.540;5.854;2023-04-30T02:04:24;17.25;;;8.82;;
75035;SDS011;64247;51.540;5.854;2023-04-30T02:08:29;14.50;;;8.65;;
75035;SDS011;64247;51.540;5.854;2023-04-30T02:10:30;16.40;;;8.48;;
75035;SDS011;64247;51.540;5.854;2023-04-30T02:12:31;16.75;;;9.63;;
75035;SDS011;64247;51.540;5.854;2023-04-30T02:14:32;16.30;;;9.35;;
75035;SDS011;64247;51.540;5.854;2023-04-30T02:18:33;15.25;;;8.20;;
75035;SDS011;64247;51.540;5.854;2023-04-30T02:20:34;21.95;;;10.50;;
75035;SDS011;64247;51.540;5.854;2023-04-30T02:22:35;21.92;;;10.38;;
75035;SDS011;64247;51.540;5.854;2023-04-30T02:24:37;20.50;;;11.02;;
75035;SDS011;64247;51.540;5.854;2023-04-30T02:26:38;17.70;;;9.13;;
75035;SDS011;64247;51.540;5.854;2023-04-30T02:30:39;20.83;;;10.05;;
75035;SDS011;64247;51.540;5.854;2023-04-30T02:32:40;20.27;;;10.35;;
75035;SDS011;64247;51.540;5.854;2023-04-30T02:34:41;20.83;;;9.73;;
75035;SDS011;64247;51.540;5.854;2023-04-30T02:36:42;20.65;;;10.32;;
75035;SDS011;64247;51.540;5.854;2023-04-30T02:38:43;20.85;;;9.52;;
75035;SDS011;64247;51.540;5.854;2023-04-30T02:40:43;18.95;;;9.73;;
75035;SDS011;64247;51.540;5.854;2023-04-30T02:42:44;14.45;;;9.32;;
75035;SDS011;64247;51.540;5.854;2023-04-30T02:44:45;20.42;;;10.10;;
75035;SDS011;64247;51.540;5.854;2023-04-30T02:46:46;26.35;;;10.07;;
75035;SDS011;64247;51.540;5.854;2023-04-30T02:48:47;16.40;;;9.20;;
75035;SDS011;64247;51.540;5.854;2023-04-30T02:52:49;16.00;;;9.90;;
75035;SDS011;64247;51.540;5.854;2023-04-30T02:54:50;16.23;;;9.50;;
75035;SDS011;64247;51.540;5.854;2023-04-30T02:58:52;22.30;;;10.13;;
75035;SDS011;64247;51.540;5.854;2023-04-30T03:00:53;20.00;;;10.75;;
75035;SDS011;64247;51.540;5.854;2023-04-30T03:02:54;24.42;;;9.65;;
75035;SDS011;64247;51.540;5.854;2023-04-30T03:04:55;16.65;;;9.70;;
75035;SDS011;64247;51.540;5.854;2023-04-30T03:06:56;23.30;;;11.40;;
75035;SDS011;64247;51.540;5.854;2023-04-30T03:08:57;22.75;;;10.65;;
75035;SDS011;64247;51.540;5.854;2023-04-30T03:10:58;20.15;;;10.88;;
75035;SDS011;64247;51.540;5.854;2023-04-30T03:12:59;21.15;;;10.48;;
75035;SDS011;64247;51.540;5.854;2023-04-30T03:15:00;19.77;;;10.23;;
75035;SDS011;64247;51.540;5.854;2023-04-30T03:19:02;15.75;;;9.25;;
75035;SDS011;64247;51.540;5.854;2023-04-30T03:21:03;16.83;;;9.52;;
75035;SDS011;64247;51.540;5.854;2023-04-30T03:23:04;21.13;;;10.80;;
75035;SDS011;64247;51.540;5.854;2023-04-30T03:25:05;19.85;;;10.38;;
75035;SDS011;64247;51.540;5.854;2023-04-30T03:27:06;21.40;;;10.35;;
75035;SDS011;64247;51.540;5.854;2023-04-30T03:31:08;17.48;;;9.52;;
75035;SDS011;64247;51.540;5.854;2023-04-30T03:33:08;20.67;;;11.50;;
75035;SDS011;64247;51.540;5.854;2023-04-30T03:35:09;17.92;;;10.25;;
75035;SDS011;64247;51.540;5.854;2023-04-30T03:39:11;19.80;;;11.43;;
75035;SDS011;64247;51.540;5.854;2023-04-30T03:43:13;22.63;;;10.30;;
75035;SDS011;64247;51.540;5.854;2023-04-30T03:47:15;23.10;;;12.60;;
75035;SDS011;64247;51.540;5.854;2023-04-30T03:49:16;22.48;;;10.93;;
75035;SDS011;64247;51.540;5.854;2023-04-30T03:53:22;18.27;;;11.43;;
75035;SDS011;64247;51.540;5.854;2023-04-30T03:55:25;18.35;;;11.55;;
75035;SDS011;64247;51.540;5.854;2023-04-30T03:57:27;19.83;;;11.43;;
75035;SDS011;64247;51.540;5.854;2023-04-30T03:59:29;21.92;;;11.75;;
75035;SDS011;64247;51.540;5.854;2023-04-30T04:01:31;25.13;;;12.50;;
75035;SDS011;64247;51.540;5.854;2023-04-30T04:03:33;22.85;;;12.55;;
75035;SDS011;64247;51.540;5.854;2023-04-30T04:05:35;25.27;;;13.05;;
75035;SDS011;64247;51.540;5.854;2023-04-30T04:09:36;23.67;;;11.75;;
75035;SDS011;64247;51.540;5.854;2023-04-30T04:11:37;18.35;;;9.95;;
75035;SDS011;64247;51.540;5.854;2023-04-30T04:13:38;22.50;;;11.05;;
75035;SDS011;64247;51.540;5.854;2023-04-30T04:17:40;19.67;;;10.02;;
75035;SDS011;64247;51.540;5.854;2023-04-30T04:21:41;16.00;;;10.10;;
75035;SDS011;64247;51.540;5.854;2023-04-30T04:23:48;24.65;;;12.35;;
75035;SDS011;64247;51.540;5.854;2023-04-30T04:25:49;21.50;;;11.30;;
75035;SDS011;64247;51.540;5.854;2023-04-30T04:27:51;26.27;;;11.65;;
75035;SDS011;64247;51.540;5.854;2023-04-30T04:29:52;25.90;;;12.13;;
75035;SDS011;64247;51.540;5.854;2023-04-30T04:31:54;21.08;;;11.70;;
75035;SDS011;64247;51.540;5.854;2023-04-30T04:33:55;25.75;;;12.95;;
75035;SDS011;64247;51.540;5.854;2023-04-30T04:35:59;23.88;;;12.20;;
75035;SDS011;64247;51.540;5.854;2023-04-30T04:38:00;21.77;;;11.60;;
75035;SDS011;64247;51.540;5.854;2023-04-30T04:40:01;23.50;;;13.38;;
75035;SDS011;64247;51.540;5.854;2023-04-30T04:42:04;16.73;;;11.15;;
75035;SDS011;64247;51.540;5.854;2023-04-30T04:44:06;20.45;;;11.55;;
75035;SDS011;64247;51.540;5.854;2023-04-30T04:46:07;23.10;;;12.07;;
75035;SDS011;64247;51.540;5.854;2023-04-30T04:48:08;25.08;;;11.80;;
75035;SDS011;64247;51.540;5.854;2023-04-30T04:50:09;23.20;;;11.18;;
75035;SDS011;64247;51.540;5.854;2023-04-30T04:52:11;23.17;;;11.05;;
75035;SDS011;64247;51.540;5.854;2023-04-30T04:54:11;25.83;;;11.93;;
75035;SDS011;64247;51.540;5.854;2023-04-30T04:56:13;18.55;;;10.93;;
75035;SDS011;64247;51.540;5.854;2023-04-30T04:58:14;23.40;;;12.25;;
75035;SDS011;64247;51.540;5.854;2023-04-30T05:00:15;21.20;;;11.75;;
75035;SDS011;64247;51.540;5.854;2023-04-30T05:02:17;21.73;;;12.55;;
75035;SDS011;64247;51.540;5.854;2023-04-30T05:04:18;22.10;;;13.00;;
75035;SDS011;64247;51.540;5.854;2023-04-30T05:08:19;22.00;;;13.10;;
75035;SDS011;64247;51.540;5.854;2023-04-30T05:10:21;21.55;;;12.13;;
75035;SDS011;64247;51.540;5.854;2023-04-30T05:12:22;22.23;;;11.77;;
75035;SDS011;64247;51.540;5.854;2023-04-30T05:16:24;21.42;;;11.55;;
75035;SDS011;64247;51.540;5.854;2023-04-30T05:18:25;21.30;;;11.60;;
75035;SDS011;64247;51.540;5.854;2023-04-30T05:20:26;24.95;;;13.07;;
75035;SDS011;64247;51.540;5.854;2023-04-30T05:22:27;22.05;;;12.30;;
75035;SDS011;64247;51.540;5.854;2023-04-30T05:26:29;19.98;;;11.55;;
75035;SDS011;64247;51.540;5.854;2023-04-30T05:28:29;24.80;;;12.27;;
75035;SDS011;64247;51.540;5.854;2023-04-30T05:30:31;21.45;;;12.30;;
75035;SDS011;64247;51.540;5.854;2023-04-30T05:32:32;23.85;;;13.18;;
75035;SDS011;64247;51.540;5.854;2023-04-30T05:34:33;23.10;;;14.18;;
75035;SDS011;64247;51.540;5.854;2023-04-30T05:36:34;23.00;;;13.55;;
75035;SDS011;64247;51.540;5.854;2023-04-30T05:38:35;20.13;;;12.32;;
75035;SDS011;64247;51.540;5.854;2023-04-30T05:40:36;25.35;;;13.30;;
75035;SDS011;64247;51.540;5.854;2023-04-30T05:42:37;22.08;;;12.50;;
75035;SDS011;64247;51.540;5.854;2023-04-30T05:44:40;18.00;;;11.13;;
75035;SDS011;64247;51.540;5.854;2023-04-30T05:46:41;20.42;;;11.50;;
75035;SDS011;64247;51.540;5.854;2023-04-30T05:48:42;19.13;;;11.63;;
75035;SDS011;64247;51.540;5.854;2023-04-30T05:50:43;20.25;;;11.40;;
75035;SDS011;64247;51.540;5.854;2023-04-30T05:52:43;20.05;;;11.50;;
75035;SDS011;64247;51.540;5.854;2023-04-30T05:54:45;15.98;;;10.30;;
75035;SDS011;64247;51.540;5.854;2023-04-30T05:56:47;15.95;;;10.70;;
75035;SDS011;64247;51.540;5.854;2023-04-30T05:58:48;22.00;;;9.75;;
75035;SDS011;64247;51.540;5.854;2023-04-30T06:00:50;17.75;;;10.50;;
75035;SDS011;64247;51.540;5.854;2023-04-30T06:02:52;16.42;;;8.68;;
75035;SDS011;64247;51.540;5.854;2023-04-30T06:04:53;15.70;;;9.82;;
75035;SDS011;64247;51.540;5.854;2023-04-30T06:06:55;15.60;;;8.25;;
75035;SDS011;64247;51.540;5.854;2023-04-30T06:08:56;11.50;;;7.47;;
75035;SDS011;64247;51.540;5.854;2023-04-30T06:10:57;15.02;;;7.03;;
75035;SDS011;64247;51.540;5.854;2023-04-30T06:12:58;11.45;;;6.80;;
75035;SDS011;64247;51.540;5.854;2023-04-30T06:14:59;13.23;;;7.60;;
75035;SDS011;64247;51.540;5.854;2023-04-30T06:17:00;11.70;;;7.05;;
75035;SDS011;64247;51.540;5.854;2023-04-30T06:19:01;11.73;;;7.25;;
75035;SDS011;64247;51.540;5.854;2023-04-30T06:21:02;13.77;;;6.70;;
75035;SDS011;64247;51.540;5.854;2023-04-30T06:23:03;12.13;;;6.72;;
75035;SDS011;64247;51.540;5.854;2023-04-30T06:25:04;11.90;;;7.38;;
75035;SDS011;64247;51.540;5.854;2023-04-30T06:27:05;10.10;;;6.47;;
75035;SDS011;64247;51.540;5.854;2023-04-30T06:29:06;9.27;;;5.70;;
75035;SDS011;64247;51.540;5.854;2023-04-30T06:31:07;10.35;;;6.55;;
75035;SDS011;64247;51.540;5.854;2023-04-30T06:33:08;9.57;;;6.45;;
75035;SDS011;64247;51.540;5.854;2023-04-30T06:35:09;10.90;;;6.47;;
75035;SDS011;64247;51.540;5.854;2023-04-30T06:37:10;9.88;;;7.15;;
75035;SDS011;64247;51.540;5.854;2023-04-30T06:39:14;11.20;;;6.72;;
75035;SDS011;64247;51.540;5.854;2023-04-30T06:41:16;10.52;;;7.38;;
75035;SDS011;64247;51.540;5.854;2023-04-30T06:43:20;10.98;;;7.22;;
75035;SDS011;64247;51.540;5.854;2023-04-30T06:45:21;11.38;;;6.72;;
75035;SDS011;64247;51.540;5.854;2023-04-30T06:47:22;9.88;;;6.22;;
75035;SDS011;64247;51.540;5.854;2023-04-30T06:49:22;13.85;;;7.78;;
75035;SDS011;64247;51.540;5.854;2023-04-30T06:51:23;8.93;;;7.03;;
75035;SDS011;64247;51.540;5.854;2023-04-30T06:53:24;9.35;;;6.13;;
75035;SDS011;64247;51.540;5.854;2023-04-30T06:55:25;10.68;;;6.30;;
75035;SDS011;64247;51.540;5.854;2023-04-30T06:57:27;8.18;;;5.70;;
75035;SDS011;64247;51.540;5.854;2023-04-30T06:59:28;7.43;;;5.80;;
75035;SDS011;64247;51.540;5.854;2023-04-30T07:01:29;13.52;;;7.18;;
75035;SDS011;64247;51.540;5.854;2023-04-30T07:03:30;9.65;;;5.60;;
75035;SDS011;64247;51.540;5.854;2023-04-30T07:05:32;10.55;;;6.30;;
75035;SDS011;64247;51.540;5.854;2023-04-30T07:07:33;8.85;;;6.72;;
75035;SDS011;64247;51.540;5.854;2023-04-30T07:09:34;9.68;;;5.97;;
75035;SDS011;64247;51.540;5.854;2023-04-30T07:11:35;10.55;;;6.40;;
75035;SDS011;64247;51.540;5.854;2023-04-30T07:13:36;8.77;;;5.70;;
75035;SDS011;64247;51.540;5.854;2023-04-30T07:15:40;8.48;;;5.78;;
75035;SDS011;64247;51.540;5.854;2023-04-30T07:17:41;8.75;;;5.28;;
75035;SDS011;64247;51.540;5.854;2023-04-30T07:19:42;7.13;;;5.03;;
75035;SDS011;64247;51.540;5.854;2023-04-30T07:21:43;13.23;;;6.47;;
75035;SDS011;64247;51.540;5.854;2023-04-30T07:23:44;7.47;;;5.07;;
75035;SDS011;64247;51.540;5.854;2023-04-30T07:25:45;9.38;;;5.45;;
75035;SDS011;64247;51.540;5.854;2023-04-30T07:27:46;7.90;;;6.07;;
75035;SDS011;64247;51.540;5.854;2023-04-30T07:29:47;9.10;;;5.05;;
75035;SDS011;64247;51.540;5.854;2023-04-30T07:31:48;7.95;;;5.75;;
75035;SDS011;64247;51.540;5.854;2023-04-30T07:33:49;8.48;;;6.13;;
75035;SDS011;64247;51.540;5.854;2023-04-30T07:35:51;9.43;;;5.15;;
75035;SDS011;64247;51.540;5.854;2023-04-30T07:37:53;8.95;;;5.90;;
75035;SDS011;64247;51.540;5.854;2023-04-30T07:39:54;8.45;;;6.05;;
75035;SDS011;64247;51.540;5.854;2023-04-30T07:41:55;8.25;;;5.32;;
75035;SDS011;64247;51.540;5.854;2023-04-30T07:43:56;8.07;;;6.28;;
75035;SDS011;64247;51.540;5.854;2023-04-30T07:45:57;10.82;;;5.97;;
75035;SDS011;64247;51.540;5.854;2023-04-30T07:48:01;7.85;;;5.78;;
75035;SDS011;64247;51.540;5.854;2023-04-30T07:50:02;11.30;;;6.55;;
75035;SDS011;64247;51.540;5.854;2023-04-30T07:52:04;8.10;;;6.60;;
75035;SDS011;64247;51.540;5.854;2023-04-30T07:54:05;11.32;;;5.60;;
75035;SDS011;64247;51.540;5.854;2023-04-30T07:56:06;9.13;;;5.38;;
75035;SDS011;64247;51.540;5.854;2023-04-30T07:58:07;13.32;;;6.95;;
75035;SDS011;64247;51.540;5.854;2023-04-30T08:00:08;6.75;;;5.50;;
75035;SDS011;64247;51.540;5.854;2023-04-30T08:02:29;9.02;;;5.88;;
75035;SDS011;64247;51.540;5.854;2023-04-30T08:04:30;7.65;;;5.38;;
75035;SDS011;64247;51.540;5.854;2023-04-30T08:06:31;7.75;;;5.78;;
75035;SDS011;64247;51.540;5.854;2023-04-30T08:08:32;9.45;;;6.30;;
75035;SDS011;64247;51.540;5.854;2023-04-30T08:10:33;6.80;;;5.07;;
75035;SDS011;64247;51.540;5.854;2023-04-30T08:14:40;9.93;;;6.47;;
75035;SDS011;64247;51.540;5.854;2023-04-30T08:16:40;7.75;;;5.65;;
75035;SDS011;64247;51.540;5.854;2023-04-30T08:18:41;11.45;;;6.25;;
75035;SDS011;64247;51.540;5.854;2023-04-30T08:20:44;9.43;;;5.45;;
75035;SDS011;64247;51.540;5.854;2023-04-30T08:22:45;8.45;;;6.28;;
75035;SDS011;64247;51.540;5.854;2023-04-30T08:24:46;10.77;;;6.13;;
75035;SDS011;64247;51.540;5.854;2023-04-30T08:26:47;7.53;;;5.82;;
75035;SDS011;64247;51.540;5.854;2023-04-30T08:28:48;8.07;;;5.80;;
75035;SDS011;64247;51.540;5.854;2023-04-30T08:30:48;8.02;;;5.55;;
75035;SDS011;64247;51.540;5.854;2023-04-30T08:32:49;7.82;;;5.63;;
75035;SDS011;64247;51.540;5.854;2023-04-30T08:34:51;8.35;;;5.63;;
75035;SDS011;64247;51.540;5.854;2023-04-30T08:36:53;7.97;;;4.95;;
75035;SDS011;64247;51.540;5.854;2023-04-30T08:38:54;8.40;;;5.43;;
75035;SDS011;64247;51.540;5.854;2023-04-30T08:41:14;7.63;;;5.68;;
75035;SDS011;64247;51.540;5.854;2023-04-30T08:43:15;7.13;;;5.18;;
75035;SDS011;64247;51.540;5.854;2023-04-30T08:45:18;7.07;;;5.25;;
75035;SDS011;64247;51.540;5.854;2023-04-30T08:47:19;7.50;;;5.00;;
75035;SDS011;64247;51.540;5.854;2023-04-30T08:49:21;8.68;;;5.32;;
75035;SDS011;64247;51.540;5.854;2023-04-30T08:51:24;8.55;;;5.45;;
75035;SDS011;64247;51.540;5.854;2023-04-30T08:53:26;8.82;;;5.78;;
75035;SDS011;64247;51.540;5.854;2023-04-30T08:55:30;9.65;;;5.53;;
75035;SDS011;64247;51.540;5.854;2023-04-30T08:57:34;6.55;;;5.03;;
75035;SDS011;64247;51.540;5.854;2023-04-30T08:59:43;7.82;;;4.95;;
75035;SDS011;64247;51.540;5.854;2023-04-30T09:01:53;7.78;;;5.70;;
75035;SDS011;64247;51.540;5.854;2023-04-30T09:03:55;6.28;;;5.20;;
75035;SDS011;64247;51.540;5.854;2023-04-30T09:05:56;6.22;;;4.90;;
75035;SDS011;64247;51.540;5.854;2023-04-30T09:07:57;11.35;;;6.85;;
75035;SDS011;64247;51.540;5.854;2023-04-30T09:09:58;6.93;;;5.45;;
75035;SDS011;64247;51.540;5.854;2023-04-30T09:14:25;6.78;;;5.53;;
75035;SDS011;64247;51.540;5.854;2023-04-30T09:16:30;9.45;;;5.28;;
75035;SDS011;64247;51.540;5.854;2023-04-30T09:18:49;8.40;;;5.68;;
75035;SDS011;64247;51.540;5.854;2023-04-30T09:20:57;8.00;;;5.88;;
75035;SDS011;64247;51.540;5.854;2023-04-30T09:23:08;7.07;;;4.50;;
75035;SDS011;64247;51.540;5.854;2023-04-30T09:25:10;8.32;;;4.97;;
75035;SDS011;64247;51.540;5.854;2023-04-30T09:27:14;11.00;;;6.18;;
75035;SDS011;64247;51.540;5.854;2023-04-30T09:31:19;7.53;;;5.13;;
75035;SDS011;64247;51.540;5.854;2023-04-30T09:33:24;10.02;;;5.55;;
75035;SDS011;64247;51.540;5.854;2023-04-30T09:35:35;8.27;;;6.03;;
75035;SDS011;64247;51.540;5.854;2023-04-30T09:37:43;7.13;;;5.13;;
75035;SDS011;64247;51.540;5.854;2023-04-30T09:39:52;8.90;;;5.32;;
75035;SDS011;64247;51.540;5.854;2023-04-30T09:42:06;9.10;;;5.97;;
75035;SDS011;64247;51.540;5.854;2023-04-30T09:46:30;6.78;;;5.18;;
75035;SDS011;64247;51.540;5.854;2023-04-30T09:48:33;7.63;;;4.88;;
75035;SDS011;64247;51.540;5.854;2023-04-30T09:50:37;6.10;;;4.78;;
75035;SDS011;64247;51.540;5.854;2023-04-30T09:52:39;6.47;;;4.85;;
75035;SDS011;64247;51.540;5.854;2023-04-30T09:54:40;7.28;;;4.75;;
75035;SDS011;64247;51.540;5.854;2023-04-30T09:56:47;7.05;;;4.97;;
75035;SDS011;64247;51.540;5.854;2023-04-30T09:58:53;5.80;;;4.95;;
75035;SDS011;64247;51.540;5.854;2023-04-30T10:00:56;6.88;;;5.28;;
75035;SDS011;64247;51.540;5.854;2023-04-30T10:03:07;10.85;;;4.85;;
75035;SDS011;64247;51.540;5.854;2023-04-30T10:05:11;5.28;;;3.92;;
75035;SDS011;64247;51.540;5.854;2023-04-30T10:07:16;4.70;;;3.42;;
75035;SDS011;64247;51.540;5.854;2023-04-30T10:09:20;5.50;;;4.35;;
75035;SDS011;64247;51.540;5.854;2023-04-30T10:11:25;7.38;;;4.47;;
75035;SDS011;64247;51.540;5.854;2023-04-30T10:13:37;8.20;;;5.13;;
75035;SDS011;64247;51.540;5.854;2023-04-30T10:15:47;5.45;;;4.57;;
75035;SDS011;64247;51.540;5.854;2023-04-30T10:17:55;7.47;;;5.55;;
75035;SDS011;64247;51.540;5.854;2023-04-30T10:20:03;7.57;;;5.00;;
75035;SDS011;64247;51.540;5.854;2023-04-30T10:22:08;5.72;;;4.70;;
75035;SDS011;64247;51.540;5.854;2023-04-30T10:24:14;7.70;;;4.45;;
75035;SDS011;64247;51.540;5.854;2023-04-30T10:26:18;5.15;;;4.60;;
75035;SDS011;64247;51.540;5.854;2023-04-30T10:28:19;7.30;;;5.10;;
75035;SDS011;64247;51.540;5.854;2023-04-30T10:30:21;4.00;;;3.60;;
75035;SDS011;64247;51.540;5.854;2023-04-30T10:32:23;5.75;;;3.78;;
75035;SDS011;64247;51.540;5.854;2023-04-30T10:37:30;5.35;;;4.18;;
75035;SDS011;64247;51.540;5.854;2023-04-30T10:39:47;9.07;;;5.13;;
75035;SDS011;64247;51.540;5.854;2023-04-30T10:41:51;5.85;;;3.75;;
75035;SDS011;64247;51.540;5.854;2023-04-30T10:43:55;4.55;;;3.58;;
75035;SDS011;64247;51.540;5.854;2023-04-30T10:45:59;7.80;;;4.32;;
75035;SDS011;64247;51.540;5.854;2023-04-30T10:48:00;9.23;;;3.88;;
75035;SDS011;64247;51.540;5.854;2023-04-30T10:50:02;3.75;;;3.38;;
75035;SDS011;64247;51.540;5.854;2023-04-30T10:52:09;5.10;;;4.05;;
75035;SDS011;64247;51.540;5.854;2023-04-30T10:54:10;3.50;;;3.20;;
75035;SDS011;64247;51.540;5.854;2023-04-30T10:56:35;3.00;;;2.70;;
75035;SDS011;64247;51.540;5.854;2023-04-30T10:58:38;3.90;;;2.95;;
75035;SDS011;64247;51.540;5.854;2023-04-30T11:00:40;4.50;;;2.88;;
75035;SDS011;64247;51.540;5.854;2023-04-30T11:03:03;3.55;;;2.88;;
75035;SDS011;64247;51.540;5.854;2023-04-30T11:05:08;4.35;;;2.88;;
75035;SDS011;64247;51.540;5.854;2023-04-30T11:07:13;4.03;;;3.42;;
75035;SDS011;64247;51.540;5.854;2023-04-30T11:09:15;8.63;;;3.78;;
75035;SDS011;64247;51.540;5.854;2023-04-30T11:11:16;2.60;;;2.40;;
75035;SDS011;64247;51.540;5.854;2023-04-30T11:13:23;5.25;;;3.60;;
75035;SDS011;64247;51.540;5.854;2023-04-30T11:15:38;4.18;;;2.70;;
75035;SDS011;64247;51.540;5.854;2023-04-30T11:17:42;2.35;;;2.15;;
75035;SDS011;64247;51.540;5.854;2023-04-30T11:19:48;2.67;;;2.25;;
75035;SDS011;64247;51.540;5.854;2023-04-30T11:24:19;5.25;;;4.03;;
75035;SDS011;64247;51.540;5.854;2023-04-30T11:26:20;5.25;;;3.58;;
75035;SDS011;64247;51.540;5.854;2023-04-30T11:28:25;8.48;;;4.00;;
75035;SDS011;64247;51.540;5.854;2023-04-30T11:30:27;5.97;;;3.88;;
75035;SDS011;64247;51.540;5.854;2023-04-30T11:32:33;6.90;;;3.88;;
75035;SDS011;64247;51.540;5.854;2023-04-30T11:34:37;5.75;;;4.65;;
75035;SDS011;64247;51.540;5.854;2023-04-30T11:36:39;6.40;;;4.13;;
75035;SDS011;64247;51.540;5.854;2023-04-30T11:38:41;4.45;;;3.47;;
75035;SDS011;64247;51.540;5.854;2023-04-30T11:40:43;9.45;;;4.57;;
75035;SDS011;64247;51.540;5.854;2023-04-30T11:42:45;5.13;;;3.63;;
75035;SDS011;64247;51.540;5.854;2023-04-30T11:44:47;4.85;;;4.13;;
75035;SDS011;64247;51.540;5.854;2023-04-30T11:46:51;4.38;;;3.42;;
75035;SDS011;64247;51.540;5.854;2023-04-30T11:48:52;4.45;;;3.65;;
75035;SDS011;64247;51.540;5.854;2023-04-30T11:50:53;4.85;;;3.63;;
75035;SDS011;64247;51.540;5.854;2023-04-30T11:52:55;2.90;;;2.53;;
75035;SDS011;64247;51.540;5.854;2023-04-30T11:54:58;2.97;;;2.67;;
75035;SDS011;64247;51.540;5.854;2023-04-30T11:57:00;3.33;;;3.03;;
75035;SDS011;64247;51.540;5.854;2023-04-30T11:59:08;6.28;;;3.63;;
75035;SDS011;64247;51.540;5.854;2023-04-30T12:03:12;7.55;;;4.43;;
75035;SDS011;64247;51.540;5.854;2023-04-30T12:05:17;3.50;;;3.05;;
75035;SDS011;64247;51.540;5.854;2023-04-30T12:07:27;6.45;;;3.95;;
75035;SDS011;64247;51.540;5.854;2023-04-30T12:09:28;4.35;;;3.30;;
75035;SDS011;64247;51.540;5.854;2023-04-30T12:11:30;7.00;;;3.72;;
75035;SDS011;64247;51.540;5.854;2023-04-30T12:13:33;6.78;;;3.58;;
75035;SDS011;64247;51.540;5.854;2023-04-30T12:15:34;4.97;;;3.85;;
75035;SDS011;64247;51.540;5.854;2023-04-30T12:17:36;5.78;;;4.32;;
75035;SDS011;64247;51.540;5.854;2023-04-30T12:19:37;4.82;;;3.25;;
75035;SDS011;64247;51.540;5.854;2023-04-30T12:21:38;2.65;;;1.70;;
75035;SDS011;64247;51.540;5.854;2023-04-30T12:23:41;7.43;;;3.90;;
75035;SDS011;64247;51.540;5.854;2023-04-30T12:25:42;8.30;;;3.75;;
75035;SDS011;64247;51.540;5.854;2023-04-30T12:27:47;10.18;;;3.50;;
75035;SDS011;64247;51.540;5.854;2023-04-30T12:29:50;4.05;;;2.63;;
75035;SDS011;64247;51.540;5.854;2023-04-30T12:31:53;4.72;;;3.80;;
75035;SDS011;64247;51.540;5.854;2023-04-30T12:33:55;3.78;;;3.08;;
75035;SDS011;64247;51.540;5.854;2023-04-30T12:35:57;5.60;;;2.70;;
75035;SDS011;64247;51.540;5.854;2023-04-30T12:38:05;5.13;;;3.45;;
75035;SDS011;64247;51.540;5.854;2023-04-30T12:40:09;3.28;;;2.90;;
75035;SDS011;64247;51.540;5.854;2023-04-30T12:42:11;3.67;;;2.30;;
75035;SDS011;64247;51.540;5.854;2023-04-30T12:46:44;3.58;;;2.25;;
75035;SDS011;64247;51.540;5.854;2023-04-30T12:48:47;2.65;;;2.33;;
75035;SDS011;64247;51.540;5.854;2023-04-30T12:53:12;3.78;;;3.47;;
75035;SDS011;64247;51.540;5.854;2023-04-30T12:55:16;2.63;;;2.00;;
75035;SDS011;64247;51.540;5.854;2023-04-30T12:57:20;3.17;;;2.00;;
75035;SDS011;64247;51.540;5.854;2023-04-30T12:59:21;1.90;;;1.80;;
75035;SDS011;64247;51.540;5.854;2023-04-30T13:01:22;3.88;;;1.80;;
75035;SDS011;64247;51.540;5.854;2023-04-30T13:03:23;5.63;;;2.75;;
75035;SDS011;64247;51.540;5.854;2023-04-30T13:05:24;3.60;;;2.60;;
75035;SDS011;64247;51.540;5.854;2023-04-30T13:07:25;6.25;;;3.03;;
75035;SDS011;64247;51.540;5.854;2023-04-30T13:09:38;5.78;;;2.63;;
75035;SDS011;64247;51.540;5.854;2023-04-30T13:11:39;4.38;;;2.60;;
75035;SDS011;64247;51.540;5.854;2023-04-30T13:13:40;3.13;;;2.80;;
75035;SDS011;64247;51.540;5.854;2023-04-30T13:15:41;2.42;;;2.22;;
75035;SDS011;64247;51.540;5.854;2023-04-30T13:17:43;4.50;;;2.55;;
75035;SDS011;64247;51.540;5.854;2023-04-30T13:19:44;4.07;;;2.30;;
75035;SDS011;64247;51.540;5.854;2023-04-30T13:21:44;2.75;;;2.03;;
75035;SDS011;64247;51.540;5.854;2023-04-30T13:23:46;4.50;;;2.50;;
75035;SDS011;64247;51.540;5.854;2023-04-30T13:25:47;4.25;;;2.40;;
75035;SDS011;64247;51.540;5.854;2023-04-30T13:27:48;3.53;;;2.17;;
75035;SDS011;64247;51.540;5.854;2023-04-30T13:29:49;7.20;;;2.97;;
75035;SDS011;64247;51.540;5.854;2023-04-30T13:31:50;3.42;;;2.90;;